createdAt,value
2023-02-24T00:01:29.500Z,10.40
2023-02-24T00:04:01.772Z,10.40
2023-02-24T00:06:38.127Z,10.30
2023-02-24T00:09:08.406Z,10.50
2023-02-24T00:11:37.284Z,10.90
2023-02-24T00:14:10.071Z,11.10
2023-02-24T00:16:38.646Z,11.10
2023-02-24T00:19:08.085Z,10.90
2023-02-24T00:21:36.759Z,10.80
2023-02-24T00:24:04.823Z,10.90
2023-02-24T00:26:33.018Z,10.90
2023-02-24T00:29:05.509Z,11.20
2023-02-24T00:31:34.429Z,11.20
2023-02-24T00:34:03.425Z,11.10
2023-02-24T00:36:36.144Z,11.10
2023-02-24T00:39:09.352Z,11.10
2023-02-24T00:41:38.665Z,11.30
2023-02-24T00:44:12.020Z,11.60
2023-02-24T00:46:41.700Z,11.90
2023-02-24T00:49:17.104Z,12.10
2023-02-24T00:51:54.196Z,12.20
2023-02-24T00:54:32.791Z,12.30
2023-02-24T00:57:03.943Z,12.30
2023-02-24T00:59:34.262Z,12.40
2023-02-24T01:02:03.594Z,12.50
2023-02-24T01:04:38.476Z,12.50
2023-02-24T01:07:10.740Z,12.50
2023-02-24T01:09:40.428Z,12.40
2023-02-24T01:12:29.827Z,12.40
2023-02-24T01:14:57.839Z,12.40
2023-02-24T01:17:28.809Z,12.50
2023-02-24T01:20:07.574Z,12.20
2023-02-24T01:22:39.662Z,11.80
2023-02-24T01:25:09.065Z,11.50
2023-02-24T01:27:40.763Z,11.30
2023-02-24T01:30:15.538Z,11.30
2023-02-24T01:32:57.434Z,11.50
2023-02-24T01:35:26.920Z,11.50
2023-02-24T01:37:56.127Z,11.40
2023-02-24T01:40:34.508Z,11.20
2023-02-24T01:43:02.378Z,11.30
2023-02-24T01:45:39.746Z,11.50
2023-02-24T01:48:11.062Z,11.60
2023-02-24T01:50:40.015Z,11.60
2023-02-24T01:53:15.498Z,11.60
2023-02-24T01:55:49.277Z,11.60
2023-02-24T01:58:23.300Z,11.60
2023-02-24T02:00:57.792Z,11.60
2023-02-24T02:03:38.897Z,11.70
2023-02-24T02:06:09.145Z,11.60
2023-02-24T02:08:48.299Z,11.70
2023-02-24T02:11:21.231Z,11.60
2023-02-24T02:13:52.072Z,11.80
2023-02-24T02:16:49.386Z,12.00
2023-02-24T02:19:59.800Z,12.20
2023-02-24T02:23:09.489Z,12.30
2023-02-24T02:26:10.799Z,12.30
2023-02-24T02:29:10.640Z,12.40
2023-02-24T02:32:08.584Z,12.50
2023-02-24T02:34:50.946Z,12.50
2023-02-24T02:37:33.315Z,12.50
2023-02-24T02:40:24.564Z,12.50
2023-02-24T02:42:58.863Z,12.40
2023-02-24T02:45:33.199Z,12.40
2023-02-24T02:48:15.270Z,12.60
2023-02-24T02:50:50.927Z,12.70
2023-02-24T02:53:27.540Z,12.60
2023-02-24T02:56:04.202Z,12.50
2023-02-24T02:58:36.224Z,12.50
2023-02-24T03:01:08.296Z,12.60
2023-02-24T03:03:42.582Z,12.70
2023-02-24T03:06:16.276Z,12.70
2023-02-24T03:08:53.457Z,12.60
2023-02-24T03:11:22.076Z,12.60
2023-02-24T03:14:05.053Z,12.60
2023-02-24T03:16:34.614Z,12.60
2023-02-24T03:19:07.285Z,12.60
2023-02-24T03:21:39.843Z,12.40
2023-02-24T03:24:24.292Z,12.20
2023-02-24T03:27:00.792Z,12.20
2023-02-24T03:29:33.908Z,12.30
2023-02-24T03:32:23.603Z,12.40
2023-02-24T03:34:56.893Z,12.40
2023-02-24T03:37:33.754Z,12.50
2023-02-24T03:40:14.875Z,12.50
2023-02-24T03:42:48.688Z,12.40
2023-02-24T03:45:19.394Z,12.50
2023-02-24T03:47:49.669Z,12.60
2023-02-24T03:50:22.865Z,12.70
2023-02-24T03:53:05.188Z,12.80
2023-02-24T03:55:54.806Z,12.80
2023-02-24T03:58:32.335Z,12.90
2023-02-24T04:01:20.531Z,12.90
2023-02-24T04:04:00.297Z,13.00
2023-02-24T04:06:36.863Z,12.80
2023-02-24T04:09:13.536Z,12.80
2023-02-24T04:11:48.328Z,12.70
2023-02-24T04:14:24.843Z,12.80
2023-02-24T04:17:01.002Z,12.80
2023-02-24T04:19:33.179Z,12.80
2023-02-24T04:22:01.796Z,13.00
2023-02-24T04:24:51.730Z,12.80
2023-02-24T04:27:20.801Z,13.00
2023-02-24T04:29:52.925Z,12.90
2023-02-24T04:32:28.424Z,12.50
2023-02-24T04:35:03.174Z,12.30
2023-02-24T04:37:37.204Z,12.10
2023-02-24T04:40:12.256Z,12.10
2023-02-24T04:42:49.135Z,12.20
2023-02-24T04:45:18.642Z,12.20
2023-02-24T04:47:49.417Z,12.00
2023-02-24T04:50:22.851Z,12.10
2023-02-24T04:52:51.975Z,12.30
2023-02-24T04:55:23.327Z,12.40
2023-02-24T04:57:53.589Z,12.30
2023-02-24T05:00:26.587Z,12.40
2023-02-24T05:03:00.231Z,12.70
2023-02-24T05:05:28.545Z,12.60
2023-02-24T05:08:02.936Z,12.60
2023-02-24T05:10:36.858Z,12.70
2023-02-24T05:13:09.223Z,12.40
2023-02-24T05:15:50.014Z,12.50
2023-02-24T05:18:20.439Z,12.50
2023-02-24T05:21:08.725Z,12.40
2023-02-24T05:23:40.171Z,12.30
2023-02-24T05:26:32.123Z,12.30
2023-02-24T05:29:01.909Z,12.40
2023-02-24T05:31:33.751Z,12.50
2023-02-24T05:34:03.929Z,12.50
2023-02-24T05:36:34.769Z,12.20
2023-02-24T05:39:12.153Z,12.10
2023-02-24T05:41:43.153Z,12.20
2023-02-24T05:44:14.152Z,12.50
2023-02-24T05:46:44.509Z,12.60
2023-02-24T05:49:15.252Z,12.70
2023-02-24T05:51:54.690Z,12.70
2023-02-24T05:54:24.221Z,12.80
2023-02-24T05:57:02.487Z,12.70
2023-02-24T05:59:34.024Z,12.50
2023-02-24T06:02:07.122Z,12.60
2023-02-24T06:04:53.752Z,12.30
2023-02-24T06:07:26.844Z,12.30
2023-02-24T06:09:57.389Z,12.20
2023-02-24T06:12:28.665Z,12.00
2023-02-24T06:14:58.043Z,11.50
2023-02-24T06:17:28.301Z,11.10
2023-02-24T06:19:56.380Z,10.80
2023-02-24T06:22:30.212Z,10.80
2023-02-24T06:24:58.090Z,10.70
2023-02-24T06:27:33.129Z,10.80
2023-02-24T06:30:10.093Z,11.00
2023-02-24T06:32:38.164Z,11.30
2023-02-24T06:35:06.606Z,11.20
2023-02-24T06:37:35.771Z,11.50
2023-02-24T06:40:15.826Z,11.60
2023-02-24T06:42:49.554Z,11.80
2023-02-24T06:45:18.120Z,12.00
2023-02-24T06:47:48.703Z,11.90
2023-02-24T06:50:20.106Z,11.60
2023-02-24T06:52:53.160Z,11.30
2023-02-24T06:55:27.082Z,11.40
2023-02-24T06:57:58.907Z,11.30
2023-02-24T07:00:36.990Z,11.40
2023-02-24T07:03:17.384Z,11.60
2023-02-24T07:05:54.316Z,11.60
2023-02-24T07:08:24.196Z,11.40
2023-02-24T07:10:59.787Z,11.70
2023-02-24T07:13:29.868Z,11.60
2023-02-24T07:16:04.007Z,11.70
2023-02-24T07:18:40.499Z,11.90
2023-02-24T07:21:14.137Z,11.80
2023-02-24T07:23:49.652Z,11.40
2023-02-24T07:26:23.063Z,10.40
2023-02-24T07:28:55.004Z,9.60
2023-02-24T07:31:25.842Z,9.10
2023-02-24T07:33:57.580Z,9.90
2023-02-24T07:36:29.893Z,10.20
2023-02-24T07:38:59.849Z,10.70
2023-02-24T07:41:31.459Z,11.10
2023-02-24T07:44:09.479Z,11.60
2023-02-24T07:46:39.839Z,12.20
2023-02-24T07:49:09.641Z,12.20
2023-02-24T07:51:44.928Z,12.50
2023-02-24T07:54:15.658Z,12.70
2023-02-24T07:56:48.756Z,13.20
2023-02-24T07:59:19.544Z,13.40
2023-02-24T08:01:55.625Z,13.40
2023-02-24T08:04:32.844Z,13.50
2023-02-24T08:07:03.220Z,13.50
2023-02-24T08:10:12.383Z,13.60
2023-02-24T08:12:47.471Z,13.70
2023-02-24T08:18:15.018Z,14.20
2023-02-24T08:20:52.198Z,14.00
2023-02-24T08:23:20.267Z,13.70
2023-02-24T08:26:02.676Z,13.90
2023-02-24T08:28:31.782Z,14.10
2023-02-24T08:31:04.556Z,14.00
2023-02-24T08:33:32.617Z,13.50
2023-02-24T08:36:06.773Z,13.10
2023-02-24T08:38:44.882Z,12.90
2023-02-24T08:41:17.959Z,12.80
2023-02-24T08:43:47.373Z,12.60
2023-02-24T08:46:26.095Z,12.50
2023-02-24T08:48:56.406Z,12.40
2023-02-24T08:51:29.619Z,12.40
2023-02-24T08:54:04.734Z,12.20
2023-02-24T08:56:34.661Z,12.10
2023-02-24T08:59:06.294Z,12.00
2023-02-24T09:02:04.325Z,11.80
2023-02-24T09:04:34.485Z,11.70
2023-02-24T09:07:11.864Z,11.70
2023-02-24T09:09:42.109Z,11.60
2023-02-24T09:12:21.658Z,11.70
2023-02-24T09:14:55.305Z,11.70
2023-02-24T09:17:49.620Z,11.60
2023-02-24T09:20:52.000Z,12.00
2023-02-24T09:23:20.974Z,12.20
2023-02-24T09:25:58.119Z,12.40
2023-02-24T09:28:32.761Z,12.60
2023-02-24T09:31:04.812Z,12.20
2023-02-24T09:33:38.727Z,12.70
2023-02-24T09:36:12.917Z,13.00
2023-02-24T09:39:00.957Z,12.90
2023-02-24T09:41:34.147Z,12.80
2023-02-24T09:44:07.381Z,12.80
2023-02-24T09:46:42.375Z,13.10
2023-02-24T09:49:17.995Z,13.40
2023-02-24T09:54:50.597Z,13.30
2023-02-24T09:57:37.199Z,13.50
2023-02-24T10:00:33.473Z,13.60
2023-02-24T10:03:21.465Z,13.20
2023-02-24T10:05:59.721Z,13.70
2023-02-24T10:08:38.212Z,13.70
2023-02-24T10:11:10.005Z,13.90
2023-02-24T10:13:43.462Z,13.90
2023-02-24T10:16:23.754Z,14.10
2023-02-24T10:19:01.014Z,14.00
2023-02-24T10:21:50.394Z,13.70
2023-02-24T10:24:30.660Z,13.60
2023-02-24T10:27:08.367Z,13.90
2023-02-24T10:29:50.996Z,14.00
2023-02-24T10:32:33.745Z,14.10
2023-02-24T10:35:06.142Z,13.70
2023-02-24T10:37:42.662Z,14.00
2023-02-24T10:40:26.384Z,14.00
2023-02-24T10:43:10.324Z,14.10
2023-02-24T10:45:45.106Z,13.50
2023-02-24T10:48:40.191Z,13.50
2023-02-24T10:51:19.481Z,13.20
2023-02-24T10:54:09.952Z,13.30
2023-02-24T10:56:44.321Z,13.70
2023-02-24T10:59:33.522Z,14.10
2023-02-24T11:02:06.754Z,14.10
2023-02-24T11:05:06.968Z,13.90
2023-02-24T11:07:46.124Z,14.00
2023-02-24T11:10:28.442Z,14.10
2023-02-24T11:13:17.381Z,14.30
2023-02-24T11:16:06.154Z,14.20
2023-02-24T11:18:35.116Z,14.10
2023-02-24T11:21:10.657Z,14.10
2023-02-24T11:23:43.058Z,14.40
2023-02-24T11:26:19.853Z,14.30
2023-02-24T11:29:28.727Z,14.30
2023-02-24T11:32:15.253Z,14.60
2023-02-24T11:34:49.481Z,14.70
2023-02-24T11:37:34.450Z,14.70
2023-02-24T11:40:08.552Z,14.70
2023-02-24T11:42:46.812Z,14.70
2023-02-24T11:45:29.313Z,14.70
2023-02-24T11:48:01.623Z,14.60
2023-02-24T11:50:43.593Z,14.60
2023-02-24T11:53:40.962Z,14.50
2023-02-24T11:56:22.991Z,14.10
2023-02-24T11:59:02.984Z,14.30
2023-02-24T12:01:35.913Z,14.20
2023-02-24T12:04:19.867Z,14.40
2023-02-24T12:06:58.425Z,14.20
2023-02-24T12:09:34.708Z,14.10
2023-02-24T12:12:17.066Z,14.30
2023-02-24T12:14:52.892Z,14.40
2023-02-24T12:17:31.972Z,14.10
2023-02-24T12:20:17.271Z,14.10
2023-02-24T12:22:50.770Z,14.40
2023-02-24T12:25:26.144Z,14.50
2023-02-24T12:28:14.314Z,14.60
2023-02-24T12:30:57.502Z,14.70
2023-02-24T12:33:43.863Z,14.60
2023-02-24T12:36:30.787Z,14.80
2023-02-24T12:39:17.858Z,14.80
2023-02-24T12:42:01.992Z,14.80
2023-02-24T12:44:42.572Z,15.00
2023-02-24T12:47:15.028Z,14.90
2023-02-24T12:49:55.545Z,14.60
2023-02-24T12:52:34.504Z,14.60
2023-02-24T12:55:09.793Z,14.60
2023-02-24T12:57:51.116Z,14.70
2023-02-24T13:00:25.775Z,14.80
2023-02-24T13:06:26.380Z,14.70
2023-02-24T13:09:17.748Z,14.80
2023-02-24T13:11:53.011Z,14.80
2023-02-24T13:14:30.156Z,14.80
2023-02-24T13:17:17.445Z,14.80
2023-02-24T13:19:58.089Z,14.90
2023-02-24T13:22:34.575Z,14.70
2023-02-24T13:25:25.433Z,14.80
2023-02-24T13:28:08.974Z,14.80
2023-02-24T13:30:59.071Z,14.80
2023-02-24T13:33:35.424Z,14.80
2023-02-24T13:36:16.847Z,14.90
2023-02-24T13:38:46.763Z,14.90
2023-02-24T13:41:41.650Z,14.90
2023-02-24T13:44:50.673Z,14.80
2023-02-24T13:48:09.345Z,14.90
2023-02-24T13:51:01.167Z,15.00
2023-02-24T13:53:58.798Z,14.60
2023-02-24T13:56:38.333Z,14.40
2023-02-24T13:59:20.801Z,14.30
2023-02-24T14:01:51.477Z,14.50
2023-02-24T14:04:22.398Z,14.60
2023-02-24T14:06:53.635Z,14.40
2023-02-24T14:09:29.348Z,14.40
2023-02-24T14:12:01.314Z,14.20
2023-02-24T14:14:30.265Z,14.30
2023-02-24T14:17:03.386Z,14.10
2023-02-24T14:19:34.090Z,14.10
2023-02-24T14:22:02.510Z,13.90
2023-02-24T14:24:34.047Z,14.10
2023-02-24T14:27:03.191Z,14.10
2023-02-24T14:29:43.263Z,14.00
2023-02-24T14:32:20.630Z,13.60
2023-02-24T14:34:49.093Z,13.20
2023-02-24T14:37:25.863Z,13.20
2023-02-24T14:39:56.759Z,13.30
2023-02-24T14:42:28.000Z,13.30
2023-02-24T14:44:58.405Z,13.40
2023-02-24T14:47:28.679Z,13.30
2023-02-24T14:50:06.837Z,13.20
2023-02-24T14:52:39.753Z,13.10
2023-02-24T14:55:21.210Z,12.80
2023-02-24T14:57:59.607Z,13.30
2023-02-24T15:00:31.032Z,13.80
2023-02-24T15:03:07.113Z,14.20
2023-02-24T15:05:35.171Z,14.20
2023-02-24T15:08:03.792Z,14.00
2023-02-24T15:10:33.391Z,14.10
2023-02-24T15:13:10.930Z,14.30
2023-02-24T15:15:42.585Z,14.40
2023-02-24T15:18:29.017Z,14.30
2023-02-24T15:21:04.428Z,14.60
2023-02-24T15:23:34.637Z,14.70
2023-02-24T15:26:08.516Z,14.70
2023-02-24T15:28:40.432Z,14.60
2023-02-24T15:31:18.841Z,14.50
2023-02-24T15:33:56.128Z,14.70
2023-02-24T15:36:26.822Z,14.20
2023-02-24T15:38:58.156Z,13.70
2023-02-24T15:41:38.147Z,13.40
2023-02-24T15:44:06.028Z,13.00
2023-02-24T15:46:37.849Z,13.00
2023-02-24T15:49:11.034Z,12.90
2023-02-24T15:51:42.655Z,12.90
2023-02-24T15:54:13.727Z,13.00
2023-02-24T15:56:51.486Z,13.00
2023-02-24T15:59:25.021Z,13.00
2023-02-24T16:01:52.958Z,13.20
2023-02-24T16:04:21.736Z,13.60
2023-02-24T16:06:55.022Z,13.50
2023-02-24T16:09:33.450Z,13.70
2023-02-24T16:12:08.168Z,13.40
2023-02-24T16:14:38.528Z,13.20
2023-02-24T16:17:18.214Z,13.20
2023-02-24T16:19:48.492Z,13.40
2023-02-24T16:22:23.733Z,13.50
2023-02-24T16:24:51.820Z,13.50
2023-02-24T16:27:23.324Z,13.60
2023-02-24T16:29:54.541Z,13.60
2023-02-24T16:32:36.687Z,13.70
2023-02-24T16:35:10.921Z,13.80
2023-02-24T16:37:41.943Z,13.80
2023-02-24T16:40:21.085Z,13.60
2023-02-24T16:42:51.529Z,13.40
2023-02-24T16:45:19.807Z,13.40
2023-02-24T16:47:48.954Z,13.50
2023-02-24T16:50:27.992Z,13.50
2023-02-24T16:52:58.042Z,13.20
2023-02-24T16:55:26.557Z,13.30
2023-02-24T16:58:03.178Z,13.20
2023-02-24T17:00:37.534Z,13.00
2023-02-24T17:03:08.527Z,12.50
2023-02-24T17:05:36.368Z,12.80
2023-02-24T17:08:11.773Z,12.90
2023-02-24T17:10:55.195Z,13.10
2023-02-24T17:13:24.441Z,13.20
2023-02-24T17:15:58.451Z,13.30
2023-02-24T17:18:27.388Z,13.30
2023-02-24T17:20:57.416Z,13.20
2023-02-24T17:23:25.246Z,13.20
2023-02-24T17:25:55.278Z,13.10
2023-02-24T17:28:38.486Z,13.10
2023-02-24T17:31:09.672Z,13.30
2023-02-24T17:33:39.397Z,13.50
2023-02-24T17:36:10.380Z,13.50
2023-02-24T17:38:38.381Z,13.80
2023-02-24T17:41:11.784Z,13.80
2023-02-24T17:43:43.286Z,13.70
2023-02-24T17:46:11.234Z,13.40
2023-02-24T17:48:39.338Z,13.30
2023-02-24T17:51:13.965Z,13.20
2023-02-24T17:53:51.461Z,13.10
2023-02-24T17:56:19.448Z,12.70
2023-02-24T17:58:58.652Z,12.80
2023-02-24T18:01:32.733Z,12.90
2023-02-24T18:04:00.763Z,13.00
2023-02-24T18:06:28.703Z,13.10
2023-02-24T18:08:56.608Z,13.10
2023-02-24T18:11:32.156Z,13.20
2023-02-24T18:14:04.585Z,13.00
2023-02-24T18:16:32.578Z,13.00
2023-02-24T18:19:00.466Z,12.90
2023-02-24T18:21:31.131Z,13.00
2023-02-24T18:24:01.408Z,13.00
2023-02-24T18:26:35.573Z,12.90
2023-02-24T18:29:05.003Z,12.80
2023-02-24T18:31:37.189Z,12.90
2023-02-24T18:34:05.256Z,12.70
2023-02-24T18:36:33.105Z,12.70
2023-02-24T18:39:00.977Z,12.90
2023-02-24T18:41:28.879Z,12.70
2023-02-24T18:43:58.965Z,12.60
2023-02-24T18:46:34.100Z,12.50
2023-02-24T18:49:25.983Z,12.60
2023-02-24T18:52:01.358Z,12.60
2023-02-24T18:54:29.236Z,12.60
2023-02-24T18:56:57.088Z,12.80
2023-02-24T18:59:33.781Z,12.80
2023-02-24T19:02:06.069Z,12.90
2023-02-24T19:04:33.980Z,12.90
2023-02-24T19:07:01.877Z,13.00
2023-02-24T19:09:35.837Z,12.80
2023-02-24T19:12:09.491Z,12.70
2023-02-24T19:14:40.121Z,12.30
2023-02-24T19:17:15.444Z,12.30
2023-02-24T19:19:43.600Z,12.30
2023-02-24T19:22:11.511Z,12.40
2023-02-24T19:24:42.971Z,12.50
2023-02-24T19:27:10.835Z,12.40
2023-02-24T19:29:41.771Z,12.50
2023-02-24T19:32:09.756Z,12.60
2023-02-24T19:34:59.488Z,12.60
2023-02-24T19:37:27.481Z,12.80
2023-02-24T19:40:04.515Z,12.70
2023-02-24T19:42:35.281Z,12.60
2023-02-24T19:45:12.436Z,12.70
2023-02-24T19:47:44.087Z,12.80
2023-02-24T19:50:14.667Z,13.10
2023-02-24T19:52:42.837Z,13.20
2023-02-24T19:55:11.989Z,12.90
2023-02-24T19:57:40.089Z,13.00
2023-02-24T20:00:14.536Z,13.10
2023-02-24T20:02:42.389Z,13.10
2023-02-24T20:05:17.169Z,13.00
2023-02-24T20:07:45.015Z,13.10
2023-02-24T20:10:15.627Z,13.10
2023-02-24T20:12:44.810Z,13.10
2023-02-24T20:15:18.905Z,13.10
2023-02-24T20:17:55.581Z,13.10
2023-02-24T20:20:35.870Z,12.90
2023-02-24T20:23:03.717Z,12.90
2023-02-24T20:25:31.578Z,12.90
2023-02-24T20:28:05.483Z,12.90
2023-02-24T20:30:33.388Z,12.90
2023-02-24T20:33:01.282Z,12.80
2023-02-24T20:35:33.540Z,12.80
2023-02-24T20:38:10.387Z,12.80
2023-02-24T20:40:38.611Z,12.90
2023-02-24T20:43:08.895Z,13.00
2023-02-24T20:45:41.013Z,12.90
2023-02-24T20:48:08.987Z,12.90
2023-02-24T20:50:38.229Z,12.90
2023-02-24T20:53:08.783Z,12.90
2023-02-24T20:55:47.336Z,13.00
2023-02-24T20:58:18.401Z,13.10
2023-02-24T21:00:46.250Z,13.20
2023-02-24T21:03:21.920Z,13.20
2023-02-24T21:06:01.432Z,13.20
2023-02-24T21:08:35.794Z,13.10
2023-02-24T21:11:03.711Z,13.20
2023-02-24T21:13:34.414Z,13.10
2023-02-24T21:16:05.663Z,13.20
2023-02-24T21:18:36.906Z,13.20
2023-02-24T21:21:06.611Z,13.10
2023-02-24T21:23:39.005Z,13.00
2023-02-24T21:26:07.944Z,12.90
2023-02-24T21:28:36.927Z,13.00
2023-02-24T21:31:17.245Z,12.90
2023-02-24T21:33:45.275Z,13.00
2023-02-24T21:36:20.892Z,13.10
2023-02-24T21:38:54.289Z,12.90
2023-02-24T21:41:23.560Z,13.00
2023-02-24T21:43:54.604Z,13.00
2023-02-24T21:46:24.402Z,12.90
2023-02-24T21:48:58.798Z,13.00
2023-02-24T21:51:31.392Z,13.10
2023-02-24T21:53:59.304Z,13.00
2023-02-24T21:56:28.625Z,12.80
2023-02-24T21:59:06.224Z,12.60
2023-02-24T22:01:35.442Z,12.70
2023-02-24T22:04:05.196Z,12.60
2023-02-24T22:06:39.294Z,12.40
2023-02-24T22:09:09.168Z,12.60
2023-02-24T22:11:41.053Z,12.50
2023-02-24T22:14:09.731Z,12.40
2023-02-24T22:16:37.830Z,12.60
2023-02-24T22:19:06.510Z,12.80
2023-02-24T22:21:39.161Z,12.90
2023-02-24T22:24:15.954Z,12.90
2023-02-24T22:26:44.114Z,12.80
2023-02-24T22:29:12.096Z,12.90
2023-02-24T22:31:43.302Z,12.80
2023-02-24T22:34:12.256Z,12.70
2023-02-24T22:36:40.111Z,12.90
2023-02-24T22:39:18.607Z,13.10
2023-02-24T22:41:52.688Z,13.10
2023-02-24T22:44:26.462Z,12.70
2023-02-24T22:46:54.366Z,12.60
2023-02-24T22:49:25.293Z,12.50
2023-02-24T22:51:55.987Z,12.60
2023-02-24T22:54:27.784Z,12.60
2023-02-24T22:56:58.448Z,12.80
2023-02-24T22:59:28.678Z,13.00
2023-02-24T23:02:03.193Z,13.10
2023-02-24T23:04:36.885Z,13.00
2023-02-24T23:07:07.799Z,13.00
2023-02-24T23:09:37.123Z,12.90
2023-02-24T23:12:05.396Z,12.90
2023-02-24T23:14:36.138Z,13.00
2023-02-24T23:17:04.002Z,13.00
2023-02-24T23:19:31.876Z,13.00
2023-02-24T23:22:09.209Z,12.90
2023-02-24T23:24:38.435Z,13.00
2023-02-24T23:27:09.818Z,13.20
2023-02-24T23:29:37.739Z,13.10
2023-02-24T23:32:06.003Z,13.10
2023-02-24T23:34:34.098Z,13.10
2023-02-24T23:37:13.966Z,13.10
2023-02-24T23:39:45.424Z,13.10
2023-02-24T23:42:13.928Z,12.90
2023-02-24T23:44:50.107Z,12.90
2023-02-24T23:47:17.972Z,12.90
2023-02-24T23:49:52.194Z,12.90
2023-02-24T23:52:25.073Z,12.70
2023-02-24T23:54:54.633Z,12.80
2023-02-24T23:57:25.317Z,12.90
